createdAt,value
2022-07-25T00:00:32.700Z,11.40
2022-07-25T00:02:54.638Z,11.83
2022-07-25T00:05:16.095Z,11.90
2022-07-25T00:07:38.138Z,11.40
2022-07-25T00:10:04.645Z,12.00
2022-07-25T00:12:25.868Z,11.10
2022-07-25T00:14:47.242Z,11.30
2022-07-25T00:17:11.672Z,11.57
2022-07-25T00:19:33.992Z,11.70
2022-07-25T00:21:55.873Z,11.40
2022-07-25T00:24:17.433Z,11.57
2022-07-25T00:26:40.791Z,11.67
2022-07-25T00:29:02.436Z,12.20
2022-07-25T00:31:24.316Z,11.67
2022-07-25T00:33:45.802Z,11.43
2022-07-25T00:36:11.058Z,11.50
2022-07-25T00:38:33.179Z,11.30
2022-07-25T00:40:58.241Z,11.47
2022-07-25T00:43:21.313Z,11.13
2022-07-25T00:45:43.455Z,11.47
2022-07-25T00:48:05.502Z,11.37
2022-07-25T00:50:27.020Z,11.23
2022-07-25T00:52:49.645Z,11.17
2022-07-25T00:55:11.089Z,12.60
2022-07-25T00:57:32.842Z,11.27
2022-07-25T00:59:55.867Z,11.83
2022-07-25T01:02:17.679Z,11.43
2022-07-25T01:04:39.737Z,11.60
2022-07-25T01:07:01.770Z,11.90
2022-07-25T01:09:23.578Z,12.10
2022-07-25T01:11:47.364Z,11.70
2022-07-25T01:14:09.566Z,11.60
2022-07-25T01:16:33.072Z,11.63
2022-07-25T01:18:55.245Z,11.90
2022-07-25T01:21:18.570Z,12.70
2022-07-25T01:23:40.733Z,11.80
2022-07-25T01:26:02.659Z,11.93
2022-07-25T01:28:24.380Z,10.73
2022-07-25T01:30:46.111Z,11.60
2022-07-25T01:33:07.639Z,12.07
2022-07-25T01:35:29.634Z,11.47
2022-07-25T01:37:52.696Z,11.77
2022-07-25T01:40:15.472Z,12.03
2022-07-25T01:42:37.116Z,11.83
2022-07-25T01:44:58.776Z,12.30
2022-07-25T01:47:20.395Z,11.97
2022-07-25T01:49:42.037Z,11.70
2022-07-25T01:52:03.645Z,12.03
2022-07-25T01:54:26.585Z,11.17
2022-07-25T01:56:48.738Z,12.50
2022-07-25T01:59:10.735Z,11.80
2022-07-25T02:01:32.299Z,11.73
2022-07-25T02:03:54.412Z,12.00
2022-07-25T02:06:15.738Z,11.93
2022-07-25T02:08:37.533Z,11.80
2022-07-25T02:11:00.997Z,11.40
2022-07-25T02:13:23.266Z,12.93
2022-07-25T02:15:45.322Z,11.80
2022-07-25T02:18:07.620Z,12.03
2022-07-25T02:20:29.687Z,11.83
2022-07-25T02:22:50.989Z,12.40
2022-07-25T02:25:12.543Z,12.20
2022-07-25T02:27:35.431Z,11.63
2022-07-25T02:29:56.590Z,11.87
2022-07-25T02:32:19.021Z,12.47
2022-07-25T02:34:40.706Z,12.30
2022-07-25T02:37:02.376Z,12.23
2022-07-25T02:39:25.369Z,11.93
2022-07-25T02:41:47.044Z,11.00
2022-07-25T02:44:10.897Z,12.10
2022-07-25T02:46:32.618Z,11.87
2022-07-25T02:48:54.399Z,11.33
2022-07-25T02:51:15.702Z,12.07
2022-07-25T02:53:56.076Z,11.80
2022-07-25T02:56:18.847Z,12.40
2022-07-25T02:58:43.391Z,11.80
2022-07-25T03:01:06.743Z,12.63
2022-07-25T03:03:29.595Z,12.60
2022-07-25T03:05:50.798Z,12.37
2022-07-25T03:08:12.258Z,12.50
2022-07-25T03:10:36.330Z,11.97
2022-07-25T03:12:58.370Z,11.83
2022-07-25T03:15:19.915Z,12.50
2022-07-25T03:17:43.590Z,12.10
2022-07-25T03:20:06.092Z,12.47
2022-07-25T03:22:27.696Z,12.30
2022-07-25T03:24:49.612Z,11.67
2022-07-25T03:27:10.918Z,12.47
2022-07-25T03:29:32.207Z,12.10
2022-07-25T03:31:53.984Z,12.63
2022-07-25T03:34:16.684Z,12.47
2022-07-25T03:36:37.958Z,12.57
2022-07-25T03:38:59.411Z,12.27
2022-07-25T03:41:21.257Z,12.07
2022-07-25T03:43:42.668Z,12.00
2022-07-25T03:46:04.959Z,12.27
2022-07-25T03:48:26.703Z,12.17
2022-07-25T03:50:49.949Z,12.20
2022-07-25T03:53:11.161Z,12.90
2022-07-25T03:55:32.356Z,13.27
2022-07-25T03:57:53.570Z,12.47
2022-07-25T04:00:17.601Z,12.57
2022-07-25T04:02:39.419Z,12.70
2022-07-25T04:05:01.182Z,12.70
2022-07-25T04:07:24.167Z,12.87
2022-07-25T04:09:45.589Z,13.20
2022-07-25T04:12:07.641Z,12.67
2022-07-25T04:14:29.536Z,12.63
2022-07-25T04:16:51.156Z,14.00
2022-07-25T04:19:12.382Z,12.93
2022-07-25T04:21:33.823Z,13.40
2022-07-25T04:23:56.522Z,12.93
2022-07-25T04:26:18.078Z,13.77
2022-07-25T04:28:39.569Z,13.90
2022-07-25T04:31:01.205Z,14.17
2022-07-25T04:33:22.748Z,12.47
2022-07-25T04:35:44.462Z,12.47
2022-07-25T04:38:11.882Z,13.37
2022-07-25T04:40:35.102Z,12.97
2022-07-25T04:42:56.413Z,12.10
2022-07-25T04:45:18.219Z,13.03
2022-07-25T04:47:39.815Z,13.53
2022-07-25T04:50:01.215Z,13.83
2022-07-25T04:52:22.987Z,13.70
2022-07-25T04:54:44.458Z,14.37
2022-07-25T04:57:07.318Z,14.43
2022-07-25T04:59:29.151Z,14.53
2022-07-25T05:01:50.975Z,13.63
2022-07-25T05:04:12.706Z,14.23
2022-07-25T05:06:34.852Z,13.27
2022-07-25T05:08:56.289Z,14.63
2022-07-25T05:11:17.778Z,14.00
2022-07-25T05:13:41.194Z,14.17
2022-07-25T05:16:03.264Z,14.43
2022-07-25T05:18:25.004Z,15.50
2022-07-25T05:20:46.517Z,15.37
2022-07-25T05:23:07.819Z,15.33
2022-07-25T05:25:29.862Z,15.70
2022-07-25T05:27:51.861Z,14.67
2022-07-25T05:30:15.858Z,14.80
2022-07-25T05:32:37.351Z,15.23
2022-07-25T05:34:58.987Z,14.30
2022-07-25T05:37:21.029Z,14.67
2022-07-25T05:39:42.558Z,15.47
2022-07-25T05:42:03.912Z,15.43
2022-07-25T05:44:25.738Z,14.90
2022-07-25T05:46:48.580Z,15.23
2022-07-25T05:49:11.108Z,15.10
2022-07-25T05:51:32.921Z,14.77
2022-07-25T05:53:54.969Z,14.67
2022-07-25T05:56:16.529Z,15.30
2022-07-25T05:58:40.449Z,14.20
2022-07-25T06:01:01.586Z,14.27
2022-07-25T06:03:24.421Z,14.50
2022-07-25T06:05:46.573Z,14.77
2022-07-25T06:08:07.948Z,15.00
2022-07-25T06:10:29.861Z,13.77
2022-07-25T06:12:51.562Z,14.07
2022-07-25T06:15:23.181Z,15.30
2022-07-25T06:17:48.793Z,14.10
2022-07-25T06:20:12.950Z,14.80
2022-07-25T06:22:34.876Z,15.27
2022-07-25T06:24:56.270Z,14.13
2022-07-25T06:27:20.993Z,14.60
2022-07-25T06:29:42.955Z,12.87
2022-07-25T06:32:05.006Z,15.20
2022-07-25T06:34:28.798Z,14.03
2022-07-25T06:36:52.133Z,13.87
2022-07-25T06:39:14.101Z,13.20
2022-07-25T06:41:36.844Z,14.07
2022-07-25T06:43:58.470Z,15.37
2022-07-25T06:46:19.992Z,15.40
2022-07-25T06:48:41.689Z,14.60
2022-07-25T06:51:03.641Z,13.60
2022-07-25T06:53:26.477Z,14.70
2022-07-25T06:55:47.647Z,14.07
2022-07-25T06:58:09.681Z,14.13
2022-07-25T07:00:31.739Z,13.67
2022-07-25T07:02:56.292Z,12.97
2022-07-25T07:05:18.766Z,13.37
2022-07-25T07:07:44.434Z,15.03
2022-07-25T07:10:11.106Z,14.40
2022-07-25T07:12:32.547Z,14.77
2022-07-25T07:14:55.478Z,14.23
2022-07-25T07:17:16.797Z,14.10
2022-07-25T07:19:43.885Z,13.70
2022-07-25T07:22:05.498Z,13.53
2022-07-25T07:24:29.790Z,13.80
2022-07-25T07:26:53.150Z,13.50
2022-07-25T07:29:15.278Z,13.67
2022-07-25T07:31:37.014Z,13.73
2022-07-25T07:33:59.562Z,13.27
2022-07-25T07:36:22.296Z,13.70
2022-07-25T07:38:44.548Z,13.67
2022-07-25T07:41:06.004Z,13.17
2022-07-25T07:43:31.615Z,13.37
2022-07-25T07:45:53.247Z,12.43
2022-07-25T07:48:14.501Z,13.20
2022-07-25T07:50:36.425Z,13.17
2022-07-25T07:52:58.969Z,13.10
2022-07-25T07:55:38.426Z,12.63
2022-07-25T07:58:00.562Z,13.53
2022-07-25T08:00:24.812Z,13.97
2022-07-25T08:02:47.517Z,12.90
2022-07-25T08:05:09.541Z,13.30
2022-07-25T08:07:31.314Z,12.93
2022-07-25T08:09:52.800Z,13.00
2022-07-25T08:12:15.093Z,13.20
2022-07-25T08:14:36.742Z,13.17
2022-07-25T08:16:59.870Z,12.60
2022-07-25T08:19:22.017Z,13.90
2022-07-25T08:21:43.666Z,13.40
2022-07-25T08:24:09.803Z,12.60
2022-07-25T08:26:33.861Z,33.73
2022-07-25T08:29:17.639Z,13.77
2022-07-25T08:31:37.285Z,13.60
2022-07-25T08:34:00.638Z,12.93
2022-07-25T08:36:22.196Z,12.67
2022-07-25T08:38:44.137Z,12.23
2022-07-25T08:41:06.121Z,12.13
2022-07-25T08:43:29.316Z,12.97
2022-07-25T08:45:52.453Z,13.30
2022-07-25T08:48:14.345Z,13.37
2022-07-25T08:50:38.850Z,12.23
2022-07-25T08:53:31.072Z,12.03
2022-07-25T08:55:43.626Z,12.73
2022-07-25T08:58:04.906Z,12.80
2022-07-25T09:00:28.803Z,12.67
2022-07-25T09:02:54.366Z,12.20
2022-07-25T09:05:16.095Z,12.07
2022-07-25T09:07:40.556Z,11.73
2022-07-25T09:10:13.317Z,11.87
2022-07-25T09:12:34.834Z,11.77
2022-07-25T09:14:56.441Z,12.00
2022-07-25T09:17:22.527Z,11.27
2022-07-25T09:19:53.241Z,11.77
2022-07-25T09:22:15.469Z,17.30
2022-07-25T09:24:38.642Z,11.17
2022-07-25T09:27:02.049Z,11.13
2022-07-25T09:29:25.136Z,10.23
2022-07-25T09:31:47.142Z,10.87
2022-07-25T09:34:10.246Z,11.07
2022-07-25T09:36:31.806Z,9.90
2022-07-25T09:38:53.845Z,15.77
2022-07-25T09:41:16.789Z,10.63
2022-07-25T09:43:40.381Z,9.57
2022-07-25T09:46:02.004Z,10.37
2022-07-25T09:48:23.441Z,10.13
2022-07-25T09:50:45.143Z,9.60
2022-07-25T09:53:06.687Z,9.30
2022-07-25T09:55:28.809Z,10.20
2022-07-25T09:57:53.607Z,9.90
2022-07-25T10:00:19.496Z,9.37
2022-07-25T10:02:49.769Z,9.80
2022-07-25T10:05:15.486Z,9.67
2022-07-25T10:07:38.912Z,9.20
2022-07-25T10:10:00.907Z,9.10
2022-07-25T10:12:23.919Z,9.37
2022-07-25T10:15:05.894Z,8.53
2022-07-25T10:17:27.635Z,8.30
2022-07-25T10:19:54.132Z,8.67
2022-07-25T10:22:29.430Z,9.47
2022-07-25T10:25:11.352Z,8.90
2022-07-25T10:27:43.387Z,8.70
2022-07-25T10:30:12.360Z,8.60
2022-07-25T10:32:35.436Z,8.90
2022-07-25T10:34:56.886Z,9.30
2022-07-25T10:37:19.376Z,9.03
2022-07-25T10:39:41.895Z,9.20
2022-07-25T10:42:06.279Z,8.83
2022-07-25T10:44:30.553Z,8.70
2022-07-25T10:47:06.425Z,8.33
2022-07-25T10:49:32.162Z,9.20
2022-07-25T10:51:57.277Z,8.73
2022-07-25T10:54:19.798Z,8.80
2022-07-25T10:56:52.760Z,8.63
2022-07-25T10:59:14.564Z,8.90
2022-07-25T11:01:36.783Z,8.30
2022-07-25T11:04:01.256Z,8.43
2022-07-25T11:06:34.544Z,8.70
2022-07-25T11:08:58.211Z,9.13
2022-07-25T11:11:20.076Z,8.97
2022-07-25T11:13:43.092Z,8.60
2022-07-25T11:16:05.169Z,9.23
2022-07-25T11:18:34.433Z,9.00
2022-07-25T11:21:05.935Z,9.03
2022-07-25T11:23:27.691Z,9.00
2022-07-25T11:25:49.716Z,8.77
2022-07-25T11:28:11.959Z,8.30
2022-07-25T11:30:33.368Z,8.60
2022-07-25T11:32:56.518Z,7.87
2022-07-25T11:35:22.490Z,8.63
2022-07-25T11:37:49.061Z,7.80
2022-07-25T11:40:11.581Z,7.90
2022-07-25T11:42:40.896Z,8.00
2022-07-25T11:45:02.355Z,8.23
2022-07-25T11:47:26.492Z,8.13
2022-07-25T11:49:48.793Z,8.30
2022-07-25T11:52:19.895Z,8.23
2022-07-25T11:54:53.303Z,6.53
2022-07-25T11:57:21.839Z,6.10
2022-07-25T11:59:43.506Z,7.47
2022-07-25T12:02:05.028Z,8.47
2022-07-25T12:04:26.939Z,8.77
2022-07-25T12:06:49.568Z,8.63
2022-07-25T12:09:18.603Z,8.50
2022-07-25T12:11:42.026Z,7.80
2022-07-25T12:14:05.537Z,7.43
2022-07-25T12:16:26.887Z,5.97
2022-07-25T12:18:48.663Z,5.90
2022-07-25T12:21:10.683Z,5.60
2022-07-25T12:23:32.260Z,5.90
2022-07-25T12:25:53.898Z,5.50
2022-07-25T12:28:16.663Z,5.80
2022-07-25T12:30:39.253Z,5.53
2022-07-25T12:33:01.327Z,5.63
2022-07-25T12:35:22.963Z,5.40
2022-07-25T12:37:44.830Z,5.80
2022-07-25T12:40:08.074Z,5.17
2022-07-25T12:42:29.923Z,5.67
2022-07-25T12:44:53.225Z,5.30
2022-07-25T12:47:14.736Z,5.70
2022-07-25T12:49:36.458Z,5.70
2022-07-25T12:51:58.415Z,5.47
2022-07-25T12:54:22.600Z,5.90
2022-07-25T12:56:44.239Z,6.17
2022-07-25T12:59:06.204Z,6.17
2022-07-25T13:01:30.031Z,5.60
2022-07-25T13:03:52.053Z,5.67
2022-07-25T13:06:14.862Z,5.47
2022-07-25T13:08:37.885Z,5.50
2022-07-25T13:10:59.557Z,6.30
2022-07-25T13:13:21.555Z,5.80
2022-07-25T13:15:43.130Z,5.77
2022-07-25T13:18:06.510Z,7.70
2022-07-25T13:20:28.803Z,7.20
2022-07-25T13:22:50.828Z,7.80
2022-07-25T13:25:12.196Z,7.70
2022-07-25T13:27:33.681Z,7.87
2022-07-25T13:29:55.245Z,7.70
2022-07-25T13:32:17.482Z,7.80
2022-07-25T13:34:40.789Z,8.20
2022-07-25T13:37:01.962Z,7.70
2022-07-25T13:39:23.303Z,7.27
2022-07-25T13:41:47.132Z,7.37
2022-07-25T13:44:09.240Z,7.63
2022-07-25T13:46:30.621Z,6.90
2022-07-25T13:48:51.979Z,7.37
2022-07-25T13:51:15.714Z,7.30
2022-07-25T13:53:37.195Z,7.53
2022-07-25T13:55:59.521Z,7.60
2022-07-25T13:58:21.327Z,7.10
2022-07-25T14:00:43.182Z,7.37
2022-07-25T14:03:05.210Z,7.87
2022-07-25T14:05:26.739Z,7.60
2022-07-25T14:07:49.568Z,7.33
2022-07-25T14:10:12.477Z,7.30
2022-07-25T14:12:34.356Z,7.13
2022-07-25T14:14:56.424Z,7.57
2022-07-25T14:17:17.985Z,7.83
2022-07-25T14:19:39.953Z,7.57
2022-07-25T14:22:01.460Z,7.27
2022-07-25T14:24:24.046Z,7.77
2022-07-25T14:26:45.305Z,7.60
2022-07-25T14:29:11.087Z,7.17
2022-07-25T14:31:33.072Z,7.60
2022-07-25T14:33:54.966Z,7.47
2022-07-25T14:36:16.466Z,7.63
2022-07-25T14:38:37.817Z,7.57
2022-07-25T14:41:00.646Z,7.40
2022-07-25T14:43:21.958Z,7.83
2022-07-25T14:45:43.294Z,7.80
2022-07-25T14:48:06.577Z,8.27
2022-07-25T14:50:28.359Z,7.87
2022-07-25T14:52:49.621Z,7.60
2022-07-25T14:55:11.130Z,7.83
2022-07-25T14:57:34.154Z,6.90
2022-07-25T14:59:56.145Z,7.70
2022-07-25T15:02:17.831Z,7.70
2022-07-25T15:04:39.165Z,7.97
2022-07-25T15:07:00.306Z,7.90
2022-07-25T15:09:26.484Z,7.60
2022-07-25T15:11:48.272Z,7.90
2022-07-25T15:14:10.675Z,7.53
2022-07-25T15:16:31.968Z,7.87
2022-07-25T15:19:24.671Z,8.30
2022-07-25T15:21:34.947Z,8.03
2022-07-25T15:23:57.403Z,7.70
2022-07-25T15:26:19.115Z,8.00
2022-07-25T15:28:40.735Z,8.13
2022-07-25T15:31:03.981Z,7.90
2022-07-25T15:33:25.636Z,7.80
2022-07-25T15:35:47.516Z,8.70
2022-07-25T15:38:09.019Z,8.63
2022-07-25T15:40:30.196Z,8.87
2022-07-25T15:42:52.239Z,8.53
2022-07-25T15:45:32.675Z,8.90
2022-07-25T15:47:56.631Z,8.90
2022-07-25T15:50:18.269Z,8.97
2022-07-25T15:52:39.700Z,9.37
2022-07-25T15:55:01.019Z,8.40
2022-07-25T15:57:22.242Z,8.63
2022-07-25T15:59:43.970Z,8.60
2022-07-25T16:02:09.405Z,8.53
2022-07-25T16:04:32.073Z,8.13
2022-07-25T16:06:53.314Z,8.60
2022-07-25T16:09:17.119Z,9.17
2022-07-25T16:11:38.819Z,8.73
2022-07-25T16:14:00.181Z,8.23
2022-07-25T16:16:22.898Z,8.77
2022-07-25T16:18:44.554Z,8.70
2022-07-25T16:21:07.622Z,9.00
2022-07-25T16:23:34.974Z,8.00
2022-07-25T16:25:59.261Z,8.10
2022-07-25T16:28:21.057Z,7.83
2022-07-25T16:30:43.693Z,8.10
2022-07-25T16:33:05.261Z,7.87
2022-07-25T16:35:26.497Z,8.10
2022-07-25T16:37:49.121Z,8.50
2022-07-25T16:40:11.395Z,8.43
2022-07-25T16:42:33.090Z,8.67
2022-07-25T16:44:54.460Z,8.80
2022-07-25T16:47:16.409Z,8.60
2022-07-25T16:49:37.690Z,8.70
2022-07-25T16:51:59.034Z,8.73
2022-07-25T16:54:23.772Z,8.20
2022-07-25T16:56:45.058Z,8.50
2022-07-25T16:59:07.548Z,8.10
2022-07-25T17:01:29.676Z,8.17
2022-07-25T17:03:51.226Z,8.10
2022-07-25T17:06:12.384Z,7.83
2022-07-25T17:08:34.859Z,8.60
2022-07-25T17:10:57.824Z,8.70
2022-07-25T17:13:19.264Z,9.00
2022-07-25T17:15:43.022Z,9.60
2022-07-25T17:18:05.479Z,9.13
2022-07-25T17:20:26.824Z,9.10
2022-07-25T17:22:48.232Z,10.03
2022-07-25T17:25:10.170Z,8.67
2022-07-25T17:27:33.066Z,9.43
2022-07-25T17:29:54.239Z,8.63
2022-07-25T17:32:15.268Z,8.03
2022-07-25T17:34:36.386Z,8.37
2022-07-25T17:37:02.603Z,8.33
2022-07-25T17:39:24.186Z,7.87
2022-07-25T17:41:47.018Z,7.37
2022-07-25T17:44:12.102Z,7.93
2022-07-25T17:46:33.942Z,7.87
2022-07-25T17:48:56.312Z,8.47
2022-07-25T17:51:17.881Z,7.87
2022-07-25T17:53:39.209Z,7.73
2022-07-25T17:56:00.521Z,7.40
2022-07-25T17:58:22.143Z,7.73
2022-07-25T18:00:44.971Z,7.13
2022-07-25T18:03:07.382Z,7.00
2022-07-25T18:05:28.693Z,7.33
2022-07-25T18:07:50.639Z,7.03
2022-07-25T18:10:12.301Z,7.03
2022-07-25T18:12:33.779Z,7.50
2022-07-25T18:14:54.905Z,7.40
2022-07-25T18:17:17.546Z,7.20
2022-07-25T18:19:38.817Z,7.80
2022-07-25T18:22:00.189Z,7.10
2022-07-25T18:24:24.773Z,7.50
2022-07-25T18:26:49.969Z,7.17
2022-07-25T18:29:11.428Z,7.30
2022-07-25T18:31:33.020Z,6.87
2022-07-25T18:33:55.925Z,7.40
2022-07-25T18:36:17.105Z,7.10
2022-07-25T18:38:38.412Z,7.53
2022-07-25T18:41:27.678Z,7.30
2022-07-25T18:43:43.931Z,7.10
2022-07-25T18:46:08.773Z,7.17
2022-07-25T18:48:30.938Z,7.13
2022-07-25T18:50:54.122Z,7.10
2022-07-25T18:53:15.454Z,7.47
2022-07-25T18:55:36.820Z,7.23
2022-07-25T18:57:58.093Z,7.07
2022-07-25T19:00:20.220Z,7.37
2022-07-25T19:02:41.886Z,7.10
2022-07-25T19:05:03.262Z,6.80
2022-07-25T19:07:26.928Z,6.83
2022-07-25T19:09:48.105Z,6.47
2022-07-25T19:12:10.266Z,6.10
2022-07-25T19:14:31.777Z,6.37
2022-07-25T19:16:53.085Z,6.37
2022-07-25T19:19:14.810Z,6.27
2022-07-25T19:21:36.173Z,6.10
2022-07-25T19:23:58.801Z,6.40
2022-07-25T19:26:20.180Z,5.80
2022-07-25T19:28:41.726Z,6.03
2022-07-25T19:31:03.446Z,5.57
2022-07-25T19:33:25.906Z,5.43
2022-07-25T19:35:56.344Z,5.67
2022-07-25T19:38:17.635Z,6.50
2022-07-25T19:40:40.302Z,6.20
2022-07-25T19:43:02.249Z,4.80
2022-07-25T19:45:24.013Z,4.90
2022-07-25T19:47:45.221Z,5.00
2022-07-25T19:50:07.328Z,4.73
2022-07-25T19:52:30.043Z,4.40
2022-07-25T19:54:51.713Z,4.40
2022-07-25T19:57:14.317Z,4.60
2022-07-25T19:59:35.473Z,4.20
2022-07-25T20:01:56.868Z,4.20
2022-07-25T20:04:18.687Z,4.20
2022-07-25T20:06:40.226Z,4.10
2022-07-25T20:09:01.555Z,4.17
2022-07-25T20:11:22.983Z,4.10
2022-07-25T20:13:45.938Z,4.17
2022-07-25T20:16:07.983Z,4.43
2022-07-25T20:18:29.317Z,5.10
2022-07-25T20:20:50.647Z,4.00
2022-07-25T20:23:11.994Z,3.80
2022-07-25T20:25:33.394Z,4.23
2022-07-25T20:27:54.662Z,4.40
2022-07-25T20:30:17.421Z,4.10
2022-07-25T20:32:39.090Z,4.10
2022-07-25T20:35:01.356Z,4.07
2022-07-25T20:37:22.961Z,4.07
2022-07-25T20:39:47.115Z,3.93
2022-07-25T20:42:09.851Z,4.30
2022-07-25T20:44:31.286Z,4.10
2022-07-25T20:46:54.117Z,4.27
2022-07-25T20:49:16.100Z,4.17
2022-07-25T20:51:39.662Z,4.10
2022-07-25T20:54:00.866Z,3.90
2022-07-25T20:56:22.163Z,4.30
2022-07-25T20:58:43.216Z,4.50
2022-07-25T21:01:04.525Z,3.77
2022-07-25T21:03:27.792Z,3.87
2022-07-25T21:05:49.317Z,4.47
2022-07-25T21:08:11.663Z,4.20
2022-07-25T21:10:33.819Z,4.33
2022-07-25T21:12:56.678Z,4.30
2022-07-25T21:15:17.985Z,4.03
2022-07-25T21:17:39.143Z,4.27
2022-07-25T21:20:01.724Z,4.23
2022-07-25T21:22:23.655Z,4.03
2022-07-25T21:24:44.915Z,4.10
2022-07-25T21:27:06.031Z,4.07
2022-07-25T21:29:27.079Z,4.03
2022-07-25T21:31:48.329Z,4.03
2022-07-25T21:34:10.234Z,4.00
2022-07-25T21:36:34.063Z,4.20
2022-07-25T21:38:55.594Z,3.80
2022-07-25T21:41:17.336Z,3.63
2022-07-25T21:43:38.607Z,3.97
2022-07-25T21:46:00.072Z,4.20
2022-07-25T21:48:43.047Z,4.10
2022-07-25T21:51:04.675Z,3.83
2022-07-25T21:53:31.745Z,4.20
2022-07-25T21:55:52.986Z,4.20
2022-07-25T21:58:14.274Z,3.90
2022-07-25T22:00:43.962Z,4.03
2022-07-25T22:03:07.023Z,4.00
2022-07-25T22:05:28.735Z,3.80
2022-07-25T22:07:50.404Z,3.77
2022-07-25T22:10:14.735Z,3.70
2022-07-25T22:12:36.602Z,3.50
2022-07-25T22:14:58.043Z,3.70
2022-07-25T22:17:19.263Z,3.47
2022-07-25T22:19:40.645Z,3.90
2022-07-25T22:22:02.127Z,3.43
2022-07-25T22:24:23.201Z,3.40
2022-07-25T22:26:45.602Z,3.63
2022-07-25T22:29:07.078Z,3.40
2022-07-25T22:31:28.824Z,3.70
2022-07-25T22:33:50.418Z,3.73
2022-07-25T22:36:12.115Z,3.40
2022-07-25T22:38:33.430Z,3.67
2022-07-25T22:40:54.812Z,3.77
2022-07-25T22:43:17.570Z,3.70
2022-07-25T22:45:42.902Z,3.53
2022-07-25T22:48:04.821Z,3.60
2022-07-25T22:50:26.233Z,3.27
2022-07-25T22:52:47.498Z,3.47
2022-07-25T22:55:09.372Z,3.60
2022-07-25T22:57:36.634Z,3.50
2022-07-25T23:00:00.602Z,3.37
2022-07-25T23:02:21.865Z,3.53
2022-07-25T23:04:43.008Z,3.73
2022-07-25T23:07:04.276Z,3.23
2022-07-25T23:09:25.662Z,3.37
2022-07-25T23:11:57.598Z,3.20
2022-07-25T23:14:19.901Z,3.20
2022-07-25T23:16:42.874Z,3.60
2022-07-25T23:19:04.165Z,3.20
2022-07-25T23:21:26.292Z,3.23
2022-07-25T23:23:47.906Z,3.20
2022-07-25T23:26:09.177Z,3.33
2022-07-25T23:28:30.672Z,3.30
2022-07-25T23:30:52.262Z,3.50
2022-07-25T23:33:14.724Z,3.50
2022-07-25T23:35:36.458Z,3.20
2022-07-25T23:37:58.091Z,3.43
2022-07-25T23:40:19.926Z,3.40
2022-07-25T23:42:41.373Z,3.43
2022-07-25T23:45:03.251Z,3.40
2022-07-25T23:47:26.791Z,3.10
2022-07-25T23:50:02.088Z,3.30
2022-07-25T23:52:23.346Z,3.40
2022-07-25T23:54:44.522Z,3.13
2022-07-25T23:57:06.049Z,3.67
2022-07-25T23:59:27.543Z,3.53
